createdAt,value
2017-10-25T00:00:44.446Z,0
2017-10-25T00:01:54.431Z,0
2017-10-25T00:03:04.986Z,0
2017-10-25T00:04:15.307Z,0
2017-10-25T00:05:25.593Z,0
2017-10-25T00:06:35.900Z,0
2017-10-25T00:07:46.191Z,0
2017-10-25T00:08:56.733Z,0
2017-10-25T00:10:06.698Z,0
2017-10-25T00:11:16.996Z,0
2017-10-25T00:12:26.950Z,0
2017-10-25T00:13:36.949Z,0
2017-10-25T00:14:47.514Z,0
2017-10-25T00:15:57.811Z,0
2017-10-25T00:17:07.781Z,0
2017-10-25T00:18:18.087Z,0
2017-10-25T00:19:28.398Z,0
2017-10-25T00:20:39.007Z,0
2017-10-25T00:21:49.304Z,0
2017-10-25T00:22:59.601Z,0
2017-10-25T00:24:09.893Z,0
2017-10-25T00:25:20.193Z,0
2017-10-25T00:26:30.746Z,0
2017-10-25T00:27:40.702Z,0
2017-10-25T00:28:50.991Z,0
2017-10-25T00:30:01.279Z,0
2017-10-25T00:31:11.576Z,0
2017-10-25T00:32:22.123Z,0
2017-10-25T00:33:32.419Z,0
2017-10-25T00:34:42.716Z,0
2017-10-25T00:35:53.005Z,0
2017-10-25T00:37:03.314Z,0
2017-10-25T00:38:13.866Z,0
2017-10-25T00:39:23.831Z,0
2017-10-25T00:40:33.794Z,0
2017-10-25T00:41:43.762Z,0
2017-10-25T00:42:54.050Z,0
2017-10-25T00:44:04.920Z,0
2017-10-25T00:45:15.220Z,0
2017-10-25T00:46:25.519Z,0
2017-10-25T00:47:35.833Z,0
2017-10-25T00:48:46.049Z,0
2017-10-25T00:49:56.616Z,0
2017-10-25T00:51:06.908Z,0
2017-10-25T00:52:17.208Z,0
2017-10-25T00:53:27.513Z,0
2017-10-25T00:54:37.490Z,0
2017-10-25T00:55:48.033Z,0
2017-10-25T00:56:58.361Z,0
2017-10-25T00:58:08.650Z,0
2017-10-25T00:59:18.647Z,0
2017-10-25T01:00:28.606Z,0
2017-10-25T01:01:38.823Z,0
2017-10-25T01:02:48.464Z,0
2017-10-25T01:03:58.761Z,0
2017-10-25T01:05:09.053Z,0
2017-10-25T01:06:19.349Z,0
2017-10-25T01:07:29.901Z,0
2017-10-25T01:08:40.196Z,0
2017-10-25T01:09:50.493Z,0
2017-10-25T01:11:00.790Z,0
2017-10-25T01:12:10.773Z,0
2017-10-25T01:13:21.384Z,0
2017-10-25T01:14:31.678Z,0
2017-10-25T01:15:41.981Z,0
2017-10-25T01:16:52.272Z,0
2017-10-25T01:18:02.247Z,0
2017-10-25T01:19:12.460Z,0
2017-10-25T01:20:22.767Z,0
2017-10-25T01:21:32.735Z,0
2017-10-25T01:22:43.046Z,0
2017-10-25T01:23:53.036Z,0
2017-10-25T01:25:03.576Z,0
2017-10-25T01:26:13.889Z,0
2017-10-25T01:27:23.854Z,0
2017-10-25T01:28:34.149Z,0
2017-10-25T01:29:44.450Z,0
2017-10-25T01:30:54.368Z,0
2017-10-25T01:32:04.340Z,0
2017-10-25T01:33:14.617Z,0
2017-10-25T01:34:24.922Z,0
2017-10-25T01:35:34.904Z,0
2017-10-25T01:36:45.118Z,0
2017-10-25T01:37:54.782Z,0
2017-10-25T01:39:05.070Z,0
2017-10-25T01:40:15.387Z,0
2017-10-25T01:41:25.689Z,0
2017-10-25T01:42:35.901Z,0
2017-10-25T01:43:46.190Z,0
2017-10-25T01:44:56.482Z,0
2017-10-25T01:46:06.766Z,0
2017-10-25T01:47:16.727Z,0
2017-10-25T01:48:26.945Z,0
2017-10-25T01:49:37.237Z,0
2017-10-25T01:50:47.203Z,0
2017-10-25T01:51:57.506Z,0
2017-10-25T01:53:07.804Z,0
2017-10-25T01:54:18.363Z,0
2017-10-25T01:55:28.653Z,0
2017-10-25T01:56:38.946Z,0
2017-10-25T01:57:49.241Z,0
2017-10-25T01:58:59.527Z,0
2017-10-25T02:00:10.128Z,0
2017-10-25T02:01:20.115Z,0
2017-10-25T02:02:29.756Z,0
2017-10-25T02:03:40.052Z,0
2017-10-25T02:04:50.335Z,0
2017-10-25T02:06:00.551Z,0
2017-10-25T02:07:10.857Z,0
2017-10-25T02:08:20.502Z,0
2017-10-25T02:09:30.515Z,0
2017-10-25T02:10:40.484Z,0
2017-10-25T02:11:50.748Z,0
2017-10-25T02:13:00.409Z,0
2017-10-25T02:14:10.709Z,0
2017-10-25T02:15:20.993Z,0
2017-10-25T02:16:30.631Z,0
2017-10-25T02:17:41.173Z,0
2017-10-25T02:18:51.470Z,0
2017-10-25T02:20:01.106Z,0
2017-10-25T02:21:11.067Z,0
2017-10-25T02:22:21.386Z,0
2017-10-25T02:23:31.929Z,0
2017-10-25T02:24:41.907Z,0
2017-10-25T02:25:52.211Z,0
2017-10-25T02:27:02.515Z,0
2017-10-25T02:28:12.833Z,0
2017-10-25T02:29:23.383Z,0
2017-10-25T02:30:33.678Z,0
2017-10-25T02:31:43.996Z,0
2017-10-25T02:32:54.296Z,0
2017-10-25T02:34:04.597Z,0
2017-10-25T02:35:15.158Z,0
2017-10-25T02:36:25.127Z,0
2017-10-25T02:37:35.292Z,0
2017-10-25T02:38:45.590Z,0
2017-10-25T02:39:55.892Z,0
2017-10-25T02:41:06.446Z,0
2017-10-25T02:42:16.738Z,0
2017-10-25T02:43:27.026Z,0
2017-10-25T02:44:36.996Z,0
2017-10-25T02:45:46.983Z,0
2017-10-25T02:46:57.524Z,0
2017-10-25T02:48:07.835Z,0
2017-10-25T02:49:18.137Z,0
2017-10-25T02:50:28.107Z,0
2017-10-25T02:51:38.079Z,0
2017-10-25T02:52:48.350Z,0
2017-10-25T02:53:58.652Z,0
2017-10-25T02:55:08.983Z,0
2017-10-25T02:56:19.281Z,0
2017-10-25T02:57:29.584Z,0
2017-10-25T02:58:40.130Z,0
2017-10-25T02:59:50.121Z,0
2017-10-25T03:01:00.432Z,0
2017-10-25T03:02:10.748Z,0
2017-10-25T03:03:21.032Z,0
2017-10-25T03:04:31.577Z,0
2017-10-25T03:05:41.545Z,0
2017-10-25T03:06:51.838Z,0
2017-10-25T03:08:01.810Z,0
2017-10-25T03:09:12.114Z,0
2017-10-25T03:10:22.331Z,0
2017-10-25T03:11:32.300Z,0
2017-10-25T03:12:42.597Z,0
2017-10-25T03:13:52.884Z,0
2017-10-25T03:15:02.853Z,0
2017-10-25T03:16:13.075Z,0
2017-10-25T03:17:23.371Z,0
2017-10-25T03:18:33.681Z,0
2017-10-25T03:19:43.651Z,0
2017-10-25T03:20:53.959Z,0
2017-10-25T03:22:04.181Z,0
2017-10-25T03:23:14.152Z,0
2017-10-25T03:24:24.444Z,0
2017-10-25T03:25:34.741Z,0
2017-10-25T03:26:45.041Z,0
2017-10-25T03:27:55.600Z,0
2017-10-25T03:29:05.575Z,0
2017-10-25T03:30:15.229Z,0
2017-10-25T03:31:25.523Z,0
2017-10-25T03:32:35.814Z,0
2017-10-25T03:33:46.357Z,0
2017-10-25T03:34:56.010Z,0
2017-10-25T03:36:06.322Z,0
2017-10-25T03:37:16.620Z,0
2017-10-25T03:38:26.911Z,0
2017-10-25T03:39:37.454Z,0
2017-10-25T03:40:47.755Z,0
2017-10-25T03:41:58.066Z,0
2017-10-25T03:43:08.047Z,0
2017-10-25T03:44:18.324Z,0
2017-10-25T03:45:28.869Z,0
2017-10-25T03:46:39.168Z,0
2017-10-25T03:47:49.136Z,0
2017-10-25T03:48:59.461Z,0
2017-10-25T03:50:09.753Z,0
2017-10-25T03:51:20.294Z,0
2017-10-25T03:52:30.591Z,0
2017-10-25T03:53:41.138Z,0
2017-10-25T03:54:51.111Z,0
2017-10-25T03:56:01.416Z,0
2017-10-25T03:57:11.646Z,0
2017-10-25T03:58:21.614Z,0
2017-10-25T03:59:31.907Z,0
2017-10-25T04:00:41.889Z,0
2017-10-25T04:01:51.850Z,0
2017-10-25T04:03:02.388Z,0
2017-10-25T04:04:12.683Z,0
2017-10-25T04:05:22.685Z,0
2017-10-25T04:06:33.000Z,0
2017-10-25T04:07:43.293Z,0
2017-10-25T04:08:53.515Z,0
2017-10-25T04:10:03.499Z,0
2017-10-25T04:11:13.469Z,0
2017-10-25T04:12:23.763Z,0
2017-10-25T04:13:34.057Z,0
2017-10-25T04:14:44.602Z,0
2017-10-25T04:15:54.890Z,0
2017-10-25T04:17:05.213Z,0
2017-10-25T04:18:15.178Z,0
2017-10-25T04:19:25.466Z,0
2017-10-25T04:20:36.010Z,0
2017-10-25T04:21:45.983Z,0
2017-10-25T04:22:56.475Z,0
2017-10-25T04:24:06.765Z,0
2017-10-25T04:25:16.400Z,0
2017-10-25T04:26:26.944Z,0
2017-10-25T04:27:37.238Z,0
2017-10-25T04:28:47.213Z,0
2017-10-25T04:29:57.190Z,0
2017-10-25T04:31:07.493Z,0
2017-10-25T04:32:18.124Z,0
2017-10-25T04:33:28.098Z,0
2017-10-25T04:34:38.393Z,0
2017-10-25T04:35:48.696Z,0
2017-10-25T04:36:58.657Z,0
2017-10-25T04:38:08.890Z,0
2017-10-25T04:39:19.189Z,0
2017-10-25T04:40:29.514Z,0
2017-10-25T04:41:39.482Z,0
2017-10-25T04:42:49.775Z,0
2017-10-25T04:44:00.318Z,0
2017-10-25T04:45:10.301Z,0
2017-10-25T04:46:20.592Z,0
2017-10-25T04:47:30.563Z,0
2017-10-25T04:48:40.862Z,0
2017-10-25T04:49:51.410Z,0
2017-10-25T04:51:01.709Z,0
2017-10-25T04:52:12.008Z,0
2017-10-25T04:53:22.311Z,0
2017-10-25T04:54:32.604Z,0
2017-10-25T04:55:43.153Z,0
2017-10-25T04:56:53.128Z,0
2017-10-25T04:58:03.104Z,0
2017-10-25T04:59:13.417Z,0
2017-10-25T05:00:23.395Z,0
2017-10-25T05:01:33.946Z,0
2017-10-25T05:02:44.257Z,0
2017-10-25T05:03:53.905Z,0
2017-10-25T05:05:03.555Z,0
2017-10-25T05:06:13.552Z,0
2017-10-25T05:07:24.103Z,0
2017-10-25T05:08:34.080Z,0
2017-10-25T05:09:44.384Z,0
2017-10-25T05:10:54.685Z,0
2017-10-25T05:12:04.996Z,0
2017-10-25T05:13:15.541Z,0
2017-10-25T05:14:25.833Z,0
2017-10-25T05:15:36.145Z,0
2017-10-25T05:16:46.445Z,0
2017-10-25T05:17:56.732Z,0
2017-10-25T05:19:07.286Z,0
2017-10-25T05:20:17.589Z,0
2017-10-25T05:21:27.557Z,0
2017-10-25T05:22:37.856Z,0
2017-10-25T05:23:48.166Z,0
2017-10-25T05:24:58.705Z,0
2017-10-25T05:26:09.006Z,4
2017-10-25T05:27:18.983Z,4
2017-10-25T05:28:28.953Z,4
2017-10-25T05:29:38.943Z,4
2017-10-25T05:30:49.491Z,4
2017-10-25T05:31:59.460Z,8
2017-10-25T05:33:09.778Z,8
2017-10-25T05:34:20.081Z,12
2017-10-25T05:35:30.052Z,12
2017-10-25T05:36:40.600Z,16
2017-10-25T05:37:50.912Z,20
2017-10-25T05:39:00.886Z,24
2017-10-25T05:40:11.188Z,28
2017-10-25T05:41:21.480Z,36
2017-10-25T05:42:32.033Z,44
2017-10-25T05:43:42.350Z,48
2017-10-25T05:44:52.662Z,60
2017-10-25T05:46:02.967Z,68
2017-10-25T05:47:13.268Z,80
2017-10-25T05:48:23.812Z,88
2017-10-25T05:49:34.114Z,104
2017-10-25T05:50:44.420Z,124
2017-10-25T05:51:54.721Z,128
2017-10-25T05:53:05.014Z,136
2017-10-25T05:54:15.561Z,148
2017-10-25T05:55:25.883Z,164
2017-10-25T05:56:35.522Z,188
2017-10-25T05:57:45.816Z,208
2017-10-25T05:58:56.133Z,224
2017-10-25T06:00:06.706Z,252
2017-10-25T06:01:17.019Z,252
2017-10-25T06:02:26.990Z,228
2017-10-25T06:03:36.958Z,224
2017-10-25T06:04:47.268Z,248
2017-10-25T06:05:57.822Z,316
2017-10-25T06:07:07.787Z,424
2017-10-25T06:08:18.100Z,464
2017-10-25T06:09:28.388Z,460
2017-10-25T06:10:38.679Z,392
2017-10-25T06:11:48.896Z,384
2017-10-25T06:12:59.195Z,376
2017-10-25T06:14:09.499Z,420
2017-10-25T06:15:19.474Z,548
2017-10-25T06:16:29.777Z,704
2017-10-25T06:17:40.325Z,800
2017-10-25T06:18:50.639Z,728
2017-10-25T06:20:00.617Z,608
2017-10-25T06:21:10.928Z,564
2017-10-25T06:22:21.243Z,680
2017-10-25T06:23:31.836Z,876
2017-10-25T06:24:42.133Z,1136
2017-10-25T06:25:52.151Z,1168
2017-10-25T06:27:02.456Z,988
2017-10-25T06:28:12.757Z,956
2017-10-25T06:29:23.310Z,912
2017-10-25T06:30:33.276Z,900
2017-10-25T06:31:43.619Z,1212
2017-10-25T06:32:53.585Z,1540
2017-10-25T06:34:03.880Z,1692
2017-10-25T06:35:14.465Z,1628
2017-10-25T06:36:24.793Z,1480
2017-10-25T06:37:34.762Z,1308
2017-10-25T06:38:45.071Z,1204
2017-10-25T06:39:55.360Z,1636
2017-10-25T06:41:05.632Z,1668
2017-10-25T06:42:15.618Z,1908
2017-10-25T06:43:25.592Z,2096
2017-10-25T06:44:35.893Z,2336
2017-10-25T06:45:46.188Z,2268
2017-10-25T06:46:56.416Z,1744
2017-10-25T06:48:06.708Z,1372
2017-10-25T06:49:17.047Z,1588
2017-10-25T06:50:26.689Z,1912
2017-10-25T06:51:36.976Z,1768
2017-10-25T06:52:46.888Z,1760
2017-10-25T06:53:57.179Z,1664
2017-10-25T06:55:07.170Z,1688
2017-10-25T06:56:17.129Z,1780
2017-10-25T06:57:27.117Z,2124
2017-10-25T06:58:37.668Z,2096
2017-10-25T06:59:47.962Z,1944
2017-10-25T07:00:58.259Z,2192
2017-10-25T07:02:08.239Z,2696
2017-10-25T07:03:18.559Z,3120
2017-10-25T07:04:29.120Z,3456
2017-10-25T07:05:39.096Z,3512
2017-10-25T07:06:49.411Z,3372
2017-10-25T07:07:59.715Z,3484
2017-10-25T07:09:10.636Z,3388
2017-10-25T07:10:21.229Z,3300
2017-10-25T07:11:31.203Z,3256
2017-10-25T07:12:41.165Z,3332
2017-10-25T07:13:51.479Z,3376
2017-10-25T07:15:01.793Z,3416
2017-10-25T07:16:12.353Z,3552
2017-10-25T07:17:22.653Z,4012
2017-10-25T07:18:32.953Z,4660
2017-10-25T07:19:43.477Z,5544
2017-10-25T07:20:53.775Z,5892
2017-10-25T07:22:04.329Z,6000
2017-10-25T07:23:14.306Z,5832
2017-10-25T07:24:24.281Z,5576
2017-10-25T07:25:33.932Z,5068
2017-10-25T07:26:44.230Z,5032
2017-10-25T07:27:54.810Z,4924
2017-10-25T07:29:05.140Z,4488
2017-10-25T07:30:14.776Z,4448
2017-10-25T07:31:24.768Z,4684
2017-10-25T07:32:35.073Z,5156
2017-10-25T07:33:45.652Z,5684
2017-10-25T07:34:55.964Z,6104
2017-10-25T07:36:06.279Z,6580
2017-10-25T07:37:16.573Z,7184
2017-10-25T07:38:26.877Z,7748
2017-10-25T07:39:37.441Z,8188
2017-10-25T07:40:47.751Z,8408
2017-10-25T07:41:58.070Z,8668
2017-10-25T07:43:08.390Z,9168
2017-10-25T07:44:18.670Z,9604
2017-10-25T07:45:28.889Z,9932
2017-10-25T07:46:39.197Z,10300
2017-10-25T07:47:49.498Z,10636
2017-10-25T07:48:59.466Z,11024
2017-10-25T07:50:09.781Z,11412
2017-10-25T07:51:20.342Z,11620
2017-10-25T07:52:30.641Z,11892
2017-10-25T07:53:40.958Z,12056
2017-10-25T07:54:51.259Z,12180
2017-10-25T07:56:01.229Z,12348
2017-10-25T07:57:11.453Z,12416
2017-10-25T07:58:21.757Z,12572
2017-10-25T07:59:32.039Z,12704
2017-10-25T08:00:42.024Z,12700
2017-10-25T08:01:52.339Z,12816
2017-10-25T08:03:02.549Z,13056
2017-10-25T08:04:12.861Z,13324
2017-10-25T08:05:23.157Z,13660
2017-10-25T08:06:33.135Z,14036
2017-10-25T08:07:43.449Z,14416
2017-10-25T08:08:53.349Z,14688
2017-10-25T08:10:03.667Z,14592
2017-10-25T08:11:13.991Z,14536
2017-10-25T08:12:24.317Z,14392
2017-10-25T08:13:34.290Z,14444
2017-10-25T08:14:44.840Z,14652
2017-10-25T08:15:55.142Z,14624
2017-10-25T08:17:05.113Z,14848
2017-10-25T08:18:15.097Z,15112
2017-10-25T08:19:25.067Z,15256
2017-10-25T08:20:35.618Z,15500
2017-10-25T08:21:45.589Z,15744
2017-10-25T08:22:55.885Z,15468
2017-10-25T08:24:06.188Z,15024
2017-10-25T08:25:16.482Z,14824
2017-10-25T08:26:27.027Z,14416
2017-10-25T08:27:37.346Z,14044
2017-10-25T08:28:47.653Z,13680
2017-10-25T08:29:57.617Z,13548
2017-10-25T08:31:07.974Z,13332
2017-10-25T08:32:18.525Z,12844
2017-10-25T08:33:28.510Z,12076
2017-10-25T08:34:38.800Z,11772
2017-10-25T08:35:48.685Z,11640
2017-10-25T08:36:59.469Z,11824
2017-10-25T08:38:10.205Z,11768
2017-10-25T08:39:20.554Z,11820
2017-10-25T08:40:30.920Z,12868
2017-10-25T08:41:40.974Z,13716
2017-10-25T08:42:51.308Z,14272
2017-10-25T08:44:01.559Z,15076
2017-10-25T08:45:11.546Z,15776
2017-10-25T08:46:21.875Z,16340
2017-10-25T08:47:31.904Z,16852
2017-10-25T08:48:42.233Z,17728
2017-10-25T08:49:52.799Z,18368
2017-10-25T08:51:02.784Z,18016
2017-10-25T08:52:12.761Z,17888
2017-10-25T08:53:23.083Z,17536
2017-10-25T08:54:33.385Z,16568
2017-10-25T08:55:43.959Z,15988
2017-10-25T08:56:54.254Z,15412
2017-10-25T08:58:04.254Z,14996
2017-10-25T08:59:14.565Z,14312
2017-10-25T09:00:24.902Z,13616
2017-10-25T09:01:35.505Z,13640
2017-10-25T09:02:45.808Z,13972
2017-10-25T09:03:56.104Z,14580
2017-10-25T09:05:06.397Z,14980
2017-10-25T09:06:16.709Z,14920
2017-10-25T09:07:27.324Z,15268
2017-10-25T09:08:37.623Z,16336
2017-10-25T09:09:47.602Z,16960
2017-10-25T09:10:57.568Z,16864
2017-10-25T09:12:07.869Z,15208
2017-10-25T09:13:18.415Z,14700
2017-10-25T09:14:28.384Z,14580
2017-10-25T09:15:38.697Z,13940
2017-10-25T09:16:48.993Z,14140
2017-10-25T09:17:58.980Z,15228
2017-10-25T09:19:09.538Z,16500
2017-10-25T09:20:19.530Z,18144
2017-10-25T09:21:29.517Z,19552
2017-10-25T09:22:39.817Z,20992
2017-10-25T09:23:50.145Z,20864
2017-10-25T09:25:00.716Z,20576
2017-10-25T09:26:11.008Z,20992
2017-10-25T09:27:21.312Z,19328
2017-10-25T09:28:31.301Z,20064
2017-10-25T09:29:41.596Z,19712
2017-10-25T09:30:52.146Z,21536
2017-10-25T09:32:02.461Z,23136
2017-10-25T09:33:12.773Z,25120
2017-10-25T09:34:22.106Z,29536
2017-10-25T09:35:32.415Z,33920
2017-10-25T09:36:42.630Z,28096
2017-10-25T09:37:52.281Z,37024
2017-10-25T09:39:02.574Z,34400
2017-10-25T09:40:12.864Z,52960
2017-10-25T09:41:23.158Z,50976
2017-10-25T09:42:33.725Z,48064
2017-10-25T09:43:43.700Z,56416
2017-10-25T09:44:54.011Z,51520
2017-10-25T09:46:04.317Z,49536
2017-10-25T09:47:14.626Z,50368
2017-10-25T09:48:25.179Z,45888
2017-10-25T09:49:35.473Z,42080
2017-10-25T09:50:45.767Z,43072
2017-10-25T09:51:55.755Z,31552
2017-10-25T09:53:06.061Z,28288
2017-10-25T09:54:15.977Z,27552
2017-10-25T09:55:26.284Z,25632
2017-10-25T09:56:36.596Z,21824
2017-10-25T09:57:46.567Z,20768
2017-10-25T09:58:56.546Z,19008
2017-10-25T10:00:06.513Z,19008
2017-10-25T10:01:16.821Z,19904
2017-10-25T10:02:27.113Z,21120
2017-10-25T10:03:37.095Z,21728
2017-10-25T10:04:47.404Z,20128
2017-10-25T10:05:57.709Z,19616
2017-10-25T10:07:08.018Z,19104
2017-10-25T10:08:17.354Z,18304
2017-10-25T10:09:27.673Z,18080
2017-10-25T10:10:37.641Z,17888
2017-10-25T10:11:48.212Z,18208
2017-10-25T10:12:58.562Z,18688
2017-10-25T10:14:08.871Z,18432
2017-10-25T10:15:19.181Z,17408
2017-10-25T10:16:29.486Z,17504
2017-10-25T10:17:39.384Z,19616
2017-10-25T10:18:49.340Z,18528
2017-10-25T10:19:59.324Z,13680
2017-10-25T10:21:09.636Z,13928
2017-10-25T10:22:19.957Z,16524
2017-10-25T10:23:30.518Z,18016
2017-10-25T10:24:40.490Z,18432
2017-10-25T10:25:50.805Z,18880
2017-10-25T10:27:01.112Z,21696
2017-10-25T10:28:11.414Z,26272
2017-10-25T10:29:21.969Z,27616
2017-10-25T10:30:31.967Z,23808
2017-10-25T10:31:42.367Z,22784
2017-10-25T10:32:52.672Z,23616
2017-10-25T10:34:02.662Z,23232
2017-10-25T10:35:12.897Z,22208
2017-10-25T10:36:22.864Z,18368
2017-10-25T10:37:33.172Z,16268
2017-10-25T10:38:43.148Z,16420
2017-10-25T10:39:53.439Z,18272
2017-10-25T10:41:03.678Z,19136
2017-10-25T10:42:13.977Z,19584
2017-10-25T10:43:23.940Z,19424
2017-10-25T10:44:34.234Z,18400
2017-10-25T10:45:44.213Z,18272
2017-10-25T10:46:54.430Z,17196
2017-10-25T10:48:04.735Z,17824
2017-10-25T10:49:14.376Z,19040
2017-10-25T10:50:24.369Z,20160
2017-10-25T10:51:34.360Z,20928
2017-10-25T10:52:44.930Z,20416
2017-10-25T10:53:54.909Z,19648
2017-10-25T10:55:05.219Z,19584
2017-10-25T10:56:14.868Z,19168
2017-10-25T10:57:24.852Z,18688
2017-10-25T10:58:35.399Z,17536
2017-10-25T10:59:45.705Z,15636
2017-10-25T11:00:56.020Z,15044
2017-10-25T11:02:06.315Z,17236
2017-10-25T11:03:16.610Z,19680
2017-10-25T11:04:26.846Z,20800
2017-10-25T11:05:37.150Z,21824
2017-10-25T11:06:47.120Z,23936
2017-10-25T11:07:57.425Z,25952
2017-10-25T11:09:07.734Z,27776
2017-10-25T11:10:18.298Z,30080
2017-10-25T11:11:28.615Z,31744
2017-10-25T11:12:38.589Z,49824
2017-10-25T11:13:48.891Z,47584
2017-10-25T11:14:59.186Z,101920
2017-10-25T11:16:09.809Z,44448
2017-10-25T11:17:19.904Z,59136
2017-10-25T11:18:30.224Z,94112
2017-10-25T11:19:40.520Z,92128
2017-10-25T11:20:50.812Z,83968
2017-10-25T11:22:00.767Z,88320
2017-10-25T11:23:10.737Z,80736
2017-10-25T11:24:21.034Z,40832
2017-10-25T11:25:31.352Z,73856
2017-10-25T11:26:41.321Z,42944
2017-10-25T11:27:51.874Z,85664
2017-10-25T11:29:02.187Z,35456
2017-10-25T11:30:12.162Z,89888
2017-10-25T11:31:22.490Z,94432
2017-10-25T11:32:32.463Z,93376
2017-10-25T11:33:43.033Z,92832
2017-10-25T11:34:53.355Z,47968
2017-10-25T11:36:03.650Z,36480
2017-10-25T11:37:13.633Z,29024
2017-10-25T11:38:23.933Z,71360
2017-10-25T11:39:34.161Z,31712
2017-10-25T11:40:44.465Z,77504
2017-10-25T11:41:54.438Z,38944
2017-10-25T11:43:04.748Z,69056
2017-10-25T11:44:14.729Z,23616
2017-10-25T11:45:24.952Z,31328
2017-10-25T11:46:35.249Z,38688
2017-10-25T11:47:45.555Z,91104
2017-10-25T11:48:55.864Z,52800
2017-10-25T11:50:05.534Z,38624
2017-10-25T11:51:15.428Z,65440
2017-10-25T11:52:25.742Z,20480
2017-10-25T11:53:36.049Z,22848
2017-10-25T11:54:46.038Z,19232
2017-10-25T11:55:56.345Z,15800
2017-10-25T11:57:06.599Z,16044
2017-10-25T11:58:16.919Z,13552
2017-10-25T11:59:27.234Z,12712
2017-10-25T12:00:37.559Z,12312
2017-10-25T12:01:47.855Z,14524
2017-10-25T12:02:58.139Z,13356
2017-10-25T12:04:08.437Z,8272
2017-10-25T12:05:18.755Z,6340
2017-10-25T12:06:28.422Z,5200
2017-10-25T12:07:38.721Z,6080
2017-10-25T12:08:48.973Z,5800
2017-10-25T12:09:58.998Z,7196
2017-10-25T12:11:09.315Z,8820
2017-10-25T12:12:19.616Z,10784
2017-10-25T12:13:29.277Z,12836
2017-10-25T12:14:39.831Z,29888
2017-10-25T12:15:49.817Z,20672
2017-10-25T12:17:00.120Z,24928
2017-10-25T12:18:10.095Z,15920
2017-10-25T12:19:20.403Z,12436
2017-10-25T12:20:30.618Z,11236
2017-10-25T12:21:40.927Z,10064
2017-10-25T12:22:50.923Z,9436
2017-10-25T12:24:01.228Z,8072
2017-10-25T12:25:11.539Z,7788
2017-10-25T12:26:22.090Z,9812
2017-10-25T12:27:32.386Z,19520
2017-10-25T12:28:42.359Z,22784
2017-10-25T12:29:52.660Z,35872
2017-10-25T12:31:02.650Z,22112
2017-10-25T12:32:13.214Z,18016
2017-10-25T12:33:23.527Z,14540
2017-10-25T12:34:33.489Z,15932
2017-10-25T12:35:43.780Z,15644
2017-10-25T12:36:54.085Z,15120
2017-10-25T12:38:04.656Z,16648
2017-10-25T12:39:14.987Z,16344
2017-10-25T12:40:24.636Z,17920
2017-10-25T12:41:34.935Z,14084
2017-10-25T12:42:44.905Z,14836
2017-10-25T12:43:55.488Z,13640
2017-10-25T12:45:05.468Z,14452
2017-10-25T12:46:15.802Z,16252
2017-10-25T12:47:25.452Z,20256
2017-10-25T12:48:35.740Z,20160
2017-10-25T12:49:45.974Z,23296
2017-10-25T12:50:55.955Z,27552
2017-10-25T12:52:06.268Z,91168
2017-10-25T12:53:16.257Z,91552
2017-10-25T12:54:26.228Z,89312
2017-10-25T12:55:36.831Z,87616
2017-10-25T12:56:47.131Z,90048
2017-10-25T12:57:57.459Z,83424
2017-10-25T12:59:07.777Z,78208
2017-10-25T13:00:18.090Z,46400
2017-10-25T13:01:28.644Z,78208
2017-10-25T13:02:38.966Z,24032
2017-10-25T13:03:49.264Z,21984
2017-10-25T13:04:59.580Z,20064
2017-10-25T13:06:09.885Z,18400
2017-10-25T13:07:20.142Z,15588
2017-10-25T13:08:30.449Z,13640
2017-10-25T13:09:40.750Z,17504
2017-10-25T13:10:51.048Z,13888
2017-10-25T13:12:01.029Z,47008
2017-10-25T13:13:11.608Z,13488
2017-10-25T13:14:21.930Z,13204
2017-10-25T13:15:32.247Z,14264
2017-10-25T13:16:42.559Z,19936
2017-10-25T13:17:52.875Z,49856
2017-10-25T13:19:03.441Z,19296
2017-10-25T13:20:13.745Z,19040
2017-10-25T13:21:23.724Z,53888
2017-10-25T13:22:34.039Z,21152
2017-10-25T13:23:44.347Z,28992
2017-10-25T13:24:54.244Z,27200
2017-10-25T13:26:04.238Z,17392
2017-10-25T13:27:14.544Z,13012
2017-10-25T13:28:24.847Z,10648
2017-10-25T13:29:34.832Z,10796
2017-10-25T13:30:45.415Z,9796
2017-10-25T13:31:55.723Z,8828
2017-10-25T13:33:06.026Z,8188
2017-10-25T13:34:16.341Z,8152
2017-10-25T13:35:26.653Z,8684
2017-10-25T13:36:37.197Z,6656
2017-10-25T13:37:47.163Z,6524
2017-10-25T13:38:57.477Z,7232
2017-10-25T13:40:07.463Z,7004
2017-10-25T13:41:17.454Z,7136
2017-10-25T13:42:28.013Z,8200
2017-10-25T13:43:38.311Z,8552
2017-10-25T13:44:48.637Z,8696
2017-10-25T13:45:58.611Z,10380
2017-10-25T13:47:08.921Z,13172
2017-10-25T13:48:19.474Z,13424
2017-10-25T13:49:29.448Z,13504
2017-10-25T13:50:39.109Z,17696
2017-10-25T13:51:49.097Z,27552
2017-10-25T13:52:59.404Z,13808
2017-10-25T13:54:09.635Z,13084
2017-10-25T13:55:19.943Z,12976
2017-10-25T13:56:30.242Z,13640
2017-10-25T13:57:40.540Z,13856
2017-10-25T13:58:50.854Z,13824
2017-10-25T14:00:01.124Z,15908
2017-10-25T14:01:11.424Z,16232
2017-10-25T14:02:21.729Z,40576
2017-10-25T14:03:31.716Z,25600
2017-10-25T14:04:42.025Z,21472
2017-10-25T14:05:52.306Z,44576
2017-10-25T14:07:02.605Z,19936
2017-10-25T14:08:12.578Z,16216
2017-10-25T14:09:22.880Z,14812
2017-10-25T14:10:32.863Z,17152
2017-10-25T14:11:43.413Z,13280
2017-10-25T14:12:53.725Z,14668
2017-10-25T14:14:04.021Z,12716
2017-10-25T14:15:14.324Z,11840
2017-10-25T14:16:24.627Z,12344
2017-10-25T14:17:34.862Z,12200
2017-10-25T14:18:45.195Z,11568
2017-10-25T14:19:55.512Z,10780
2017-10-25T14:21:05.839Z,10168
2017-10-25T14:22:16.126Z,9228
2017-10-25T14:23:26.398Z,8040
2017-10-25T14:24:36.716Z,7396
2017-10-25T14:25:46.708Z,7012
2017-10-25T14:26:57.047Z,6224
2017-10-25T14:28:07.370Z,5084
2017-10-25T14:29:17.262Z,4216
2017-10-25T14:30:27.586Z,3828
2017-10-25T14:31:37.885Z,3480
2017-10-25T14:32:47.863Z,3276
2017-10-25T14:33:58.164Z,3224
2017-10-25T14:35:08.725Z,3084
2017-10-25T14:36:19.033Z,2988
2017-10-25T14:37:29.329Z,2728
2017-10-25T14:38:39.638Z,2500
2017-10-25T14:39:49.616Z,2312
2017-10-25T14:41:00.168Z,2356
2017-10-25T14:42:10.136Z,2328
2017-10-25T14:43:20.437Z,2232
2017-10-25T14:44:30.739Z,2064
2017-10-25T14:45:40.389Z,1952
2017-10-25T14:46:50.925Z,1768
2017-10-25T14:48:01.226Z,1644
2017-10-25T14:49:11.536Z,1620
2017-10-25T14:50:21.839Z,1712
2017-10-25T14:51:32.145Z,1756
2017-10-25T14:52:42.752Z,1680
2017-10-25T14:53:53.069Z,1576
2017-10-25T14:55:03.045Z,1516
2017-10-25T14:56:13.349Z,1504
2017-10-25T14:57:23.017Z,1476
2017-10-25T14:58:33.554Z,1392
2017-10-25T14:59:43.553Z,1236
2017-10-25T15:00:53.843Z,1196
2017-10-25T15:02:03.817Z,1200
2017-10-25T15:03:13.800Z,1216
2017-10-25T15:04:24.055Z,1336
2017-10-25T15:05:34.036Z,1372
2017-10-25T15:06:44.338Z,1324
2017-10-25T15:07:54.314Z,1320
2017-10-25T15:09:04.278Z,1276
2017-10-25T15:10:14.514Z,1212
2017-10-25T15:11:24.842Z,1308
2017-10-25T15:12:34.809Z,1316
2017-10-25T15:13:44.780Z,1312
2017-10-25T15:14:54.768Z,1308
2017-10-25T15:16:05.329Z,1292
2017-10-25T15:17:15.653Z,1264
2017-10-25T15:18:25.977Z,1168
2017-10-25T15:19:35.950Z,1200
2017-10-25T15:20:46.259Z,1268
2017-10-25T15:21:56.814Z,1280
2017-10-25T15:23:07.137Z,1224
2017-10-25T15:24:17.477Z,1144
2017-10-25T15:25:27.471Z,1028
2017-10-25T15:26:37.776Z,868
2017-10-25T15:27:48.001Z,684
2017-10-25T15:28:58.318Z,508
2017-10-25T15:30:08.626Z,396
2017-10-25T15:31:18.939Z,332
2017-10-25T15:32:29.242Z,296
2017-10-25T15:33:39.784Z,288
2017-10-25T15:34:50.089Z,288
2017-10-25T15:36:00.383Z,272
2017-10-25T15:37:10.359Z,280
2017-10-25T15:38:20.670Z,292
2017-10-25T15:39:31.282Z,272
2017-10-25T15:40:41.262Z,252
2017-10-25T15:41:51.582Z,216
2017-10-25T15:43:01.889Z,192
2017-10-25T15:44:12.189Z,188
2017-10-25T15:45:22.443Z,192
2017-10-25T15:46:32.744Z,148
2017-10-25T15:47:43.034Z,116
2017-10-25T15:48:53.019Z,100
2017-10-25T15:50:03.350Z,100
2017-10-25T15:51:13.899Z,96
2017-10-25T15:52:24.209Z,88
2017-10-25T15:53:34.513Z,76
2017-10-25T15:54:44.837Z,68
2017-10-25T15:55:55.139Z,56
2017-10-25T15:57:05.376Z,40
2017-10-25T15:58:15.356Z,32
2017-10-25T15:59:25.014Z,28